createdAt,value
2023-01-20T00:01:16.366Z,6.97
2023-01-20T00:06:20.891Z,7.97
2023-01-20T00:11:23.800Z,7.97
2023-01-20T00:16:27.298Z,7.67
2023-01-20T00:21:31.449Z,6.30
2023-01-20T00:26:34.170Z,6.87
2023-01-20T00:31:37.265Z,6.50
2023-01-20T00:36:41.396Z,6.97
2023-01-20T00:41:44.206Z,5.87
2023-01-20T00:46:47.169Z,6.90
2023-01-20T00:51:51.281Z,6.47
2023-01-20T00:56:54.017Z,8.07
2023-01-20T01:01:56.851Z,10.10
2023-01-20T01:07:00.995Z,7.93
2023-01-20T01:12:03.794Z,9.40
2023-01-20T01:17:06.711Z,6.47
2023-01-20T01:22:10.802Z,8.27
2023-01-20T01:27:13.668Z,8.13
2023-01-20T01:32:16.438Z,6.13
2023-01-20T01:37:20.556Z,7.90
2023-01-20T01:42:25.289Z,6.97
2023-01-20T01:47:28.032Z,8.13
2023-01-20T01:52:32.674Z,6.10
2023-01-20T01:57:35.886Z,11.50
2023-01-20T02:02:38.711Z,8.97
2023-01-20T02:07:43.896Z,9.97
2023-01-20T02:12:49.544Z,8.47
2023-01-20T02:18:03.516Z,9.87
2023-01-20T02:23:12.573Z,10.57
2023-01-20T02:28:45.852Z,7.33
2023-01-20T02:33:53.513Z,8.30
2023-01-20T02:39:00.864Z,7.60
2023-01-20T02:44:09.807Z,10.87
2023-01-20T02:49:16.177Z,7.97
2023-01-20T02:54:19.836Z,8.17
2023-01-20T02:59:25.872Z,5.77
2023-01-20T03:04:35.831Z,8.83
2023-01-20T03:09:40.217Z,8.13
2023-01-20T03:14:43.118Z,8.80
2023-01-20T03:19:47.358Z,10.57
2023-01-20T03:24:50.306Z,8.87
2023-01-20T03:29:53.082Z,8.53
2023-01-20T03:34:57.620Z,9.57
2023-01-20T03:40:01.708Z,8.10
2023-01-20T03:45:07.868Z,8.37
2023-01-20T03:50:19.131Z,8.07
2023-01-20T03:55:24.640Z,7.27
2023-01-20T04:00:29.741Z,7.90
2023-01-20T04:05:34.944Z,9.20
2023-01-20T04:10:40.227Z,10.87
2023-01-20T04:15:44.940Z,7.90
2023-01-20T04:20:51.537Z,8.97
2023-01-20T04:25:54.490Z,7.27
2023-01-20T04:30:57.552Z,6.80
2023-01-20T04:36:01.777Z,10.57
2023-01-20T04:41:04.658Z,9.63
2023-01-20T04:46:07.462Z,9.20
2023-01-20T04:51:11.891Z,9.60
2023-01-20T04:56:15.795Z,8.20
2023-01-20T05:01:18.623Z,9.17
2023-01-20T05:06:22.705Z,8.57
2023-01-20T05:11:25.531Z,9.90
2023-01-20T05:16:31.915Z,9.83
2023-01-20T05:21:36.072Z,8.87
2023-01-20T05:26:38.902Z,6.53
2023-01-20T05:31:43.304Z,8.97
2023-01-20T05:36:47.660Z,9.07
2023-01-20T05:41:50.660Z,8.47
2023-01-20T05:46:53.490Z,9.40
2023-01-20T05:51:57.589Z,9.60
2023-01-20T05:57:00.530Z,9.73
2023-01-20T06:02:03.373Z,8.47
2023-01-20T06:07:07.464Z,11.70
2023-01-20T06:12:10.275Z,8.83
2023-01-20T06:17:13.115Z,12.77
2023-01-20T06:22:19.572Z,8.97
2023-01-20T06:27:22.308Z,9.17
2023-01-20T06:32:25.156Z,8.70
2023-01-20T06:37:29.271Z,8.87
2023-01-20T06:42:32.277Z,8.47
2023-01-20T06:47:35.056Z,8.87
2023-01-20T06:52:39.115Z,11.03
2023-01-20T06:57:42.027Z,9.13
2023-01-20T07:02:44.850Z,7.83
2023-01-20T07:07:49.060Z,10.20
2023-01-20T07:12:51.772Z,8.03
2023-01-20T07:17:54.529Z,9.87
2023-01-20T07:23:00.491Z,14.93
2023-01-20T07:28:03.230Z,10.83
2023-01-20T07:33:06.033Z,11.50
2023-01-20T07:38:10.357Z,9.57
2023-01-20T07:43:13.256Z,12.47
2023-01-20T07:48:15.975Z,10.57
2023-01-20T07:53:20.161Z,11.60
2023-01-20T07:58:22.968Z,8.90
2023-01-20T08:03:27.483Z,9.20
2023-01-20T08:08:31.950Z,9.07
2023-01-20T08:13:35.239Z,9.27
2023-01-20T08:18:38.398Z,11.47
2023-01-20T08:23:42.456Z,10.73
2023-01-20T08:28:45.241Z,10.60
2023-01-20T08:33:48.304Z,11.53
2023-01-20T08:38:52.447Z,10.23
2023-01-20T08:43:55.782Z,12.80
2023-01-20T08:48:58.877Z,10.33
2023-01-20T08:54:03.340Z,11.47
2023-01-20T08:59:06.282Z,8.27
2023-01-20T09:04:09.054Z,16.53
2023-01-20T09:09:13.724Z,13.93
2023-01-20T09:14:16.645Z,12.13
2023-01-20T09:19:19.792Z,9.90
2023-01-20T09:24:24.274Z,9.37
2023-01-20T09:29:27.064Z,13.53
2023-01-20T09:34:30.251Z,10.30
2023-01-20T09:39:52.013Z,10.60
2023-01-20T09:44:57.629Z,13.27
2023-01-20T09:50:41.399Z,9.63
2023-01-20T09:55:50.275Z,9.23
2023-01-20T10:00:55.299Z,14.77
2023-01-20T10:06:00.409Z,10.67
2023-01-20T10:11:08.225Z,12.03
2023-01-20T10:16:13.138Z,13.70
2023-01-20T10:21:20.629Z,10.83
2023-01-20T10:26:29.627Z,13.03
2023-01-20T10:31:36.092Z,10.83
2023-01-20T10:36:41.359Z,11.90
2023-01-20T10:41:48.369Z,16.97
2023-01-20T10:46:58.919Z,11.53
2023-01-20T10:52:12.628Z,13.13
2023-01-20T10:57:17.113Z,11.97
2023-01-20T11:02:22.240Z,13.90
2023-01-20T11:07:25.048Z,10.73
2023-01-20T11:12:31.538Z,13.87
2023-01-20T11:17:34.274Z,13.20
2023-01-20T11:22:38.715Z,12.10
2023-01-20T11:27:45.821Z,13.10
2023-01-20T11:33:08.611Z,11.87
2023-01-20T11:38:25.626Z,14.47
2023-01-20T11:43:31.297Z,12.00
2023-01-20T11:48:34.226Z,12.37
2023-01-20T11:53:37.016Z,15.47
2023-01-20T11:58:52.530Z,12.57
2023-01-20T12:04:21.365Z,14.27
2023-01-20T12:09:27.965Z,12.93
2023-01-20T12:14:33.520Z,13.57
2023-01-20T12:19:42.054Z,15.37
2023-01-20T12:25:10.827Z,13.93
2023-01-20T12:30:34.809Z,13.43
2023-01-20T12:35:42.992Z,14.93
2023-01-20T12:40:49.082Z,11.70
2023-01-20T12:46:05.128Z,11.63
2023-01-20T12:51:15.505Z,11.97
2023-01-20T12:56:23.789Z,14.63
2023-01-20T13:01:42.638Z,12.60
2023-01-20T13:06:55.464Z,14.40
2023-01-20T13:12:06.573Z,13.43
2023-01-20T13:17:17.362Z,12.97
2023-01-20T13:22:21.809Z,10.13
2023-01-20T13:27:27.689Z,13.27
2023-01-20T13:32:36.560Z,16.00
2023-01-20T13:37:40.027Z,14.83
2023-01-20T13:42:53.320Z,15.20
2023-01-20T13:48:00.453Z,19.90
2023-01-20T13:53:22.471Z,11.73
2023-01-20T13:58:43.847Z,15.33
2023-01-20T14:04:02.673Z,13.63
2023-01-20T14:09:12.865Z,12.63
2023-01-20T14:14:20.252Z,13.60
2023-01-20T14:19:29.803Z,15.03
2023-01-20T14:24:34.473Z,14.27
2023-01-20T14:29:37.211Z,15.50
2023-01-20T14:34:41.462Z,11.50
2023-01-20T14:39:49.268Z,14.90
2023-01-20T14:44:53.499Z,16.33
2023-01-20T14:49:57.627Z,13.13
2023-01-20T14:55:00.339Z,18.33
2023-01-20T15:00:21.610Z,14.57
2023-01-20T15:05:28.858Z,13.00
2023-01-20T15:10:31.744Z,15.47
2023-01-20T15:15:34.769Z,16.60
2023-01-20T15:20:40.456Z,14.93
2023-01-20T15:25:43.450Z,15.17
2023-01-20T15:30:46.234Z,13.67
2023-01-20T15:35:54.691Z,12.33
2023-01-20T15:40:57.557Z,11.63
2023-01-20T15:46:00.397Z,13.33
2023-01-20T15:51:07.045Z,18.30
2023-01-20T15:56:15.527Z,15.07
2023-01-20T16:01:20.410Z,17.57
2023-01-20T16:06:28.999Z,16.57
2023-01-20T16:11:32.035Z,16.20
2023-01-20T16:16:35.118Z,15.00
2023-01-20T16:21:39.462Z,14.93
2023-01-20T16:26:44.258Z,14.50
2023-01-20T16:31:47.255Z,13.83
2023-01-20T16:36:51.793Z,12.90
2023-01-20T16:41:54.674Z,18.03
2023-01-20T16:46:58.567Z,17.30
2023-01-20T16:52:03.270Z,12.10
2023-01-20T16:57:06.355Z,12.13
2023-01-20T17:02:10.907Z,11.10
2023-01-20T17:07:15.161Z,10.17
2023-01-20T17:12:18.160Z,13.30
2023-01-20T17:17:22.438Z,16.23
2023-01-20T17:22:26.625Z,17.17
2023-01-20T17:27:29.344Z,17.73
2023-01-20T17:32:32.067Z,17.93
2023-01-20T17:37:36.084Z,20.67
2023-01-20T17:42:39.315Z,19.00
2023-01-20T17:47:42.106Z,21.43
2023-01-20T17:52:46.237Z,19.50
2023-01-20T17:57:51.111Z,18.23
2023-01-20T18:02:56.573Z,14.87
2023-01-20T18:08:00.709Z,12.97
2023-01-20T18:13:03.662Z,15.00
2023-01-20T18:18:06.461Z,14.30
2023-01-20T18:23:10.586Z,11.17
2023-01-20T18:28:13.545Z,14.67
2023-01-20T18:33:16.280Z,12.17
2023-01-20T18:38:20.515Z,15.00
2023-01-20T18:43:23.220Z,19.23
2023-01-20T18:48:26.502Z,20.80
2023-01-20T18:53:31.651Z,16.37
2023-01-20T18:58:34.772Z,17.57
2023-01-20T19:03:38.454Z,18.17
2023-01-20T19:08:43.642Z,18.97
2023-01-20T19:13:48.623Z,19.07
2023-01-20T19:18:52.812Z,21.53
2023-01-20T19:23:59.757Z,18.40
2023-01-20T19:29:06.257Z,15.77
2023-01-20T19:34:09.899Z,20.93
2023-01-20T19:39:14.146Z,19.67
2023-01-20T19:44:16.910Z,19.47
2023-01-20T19:49:19.814Z,16.80
2023-01-20T19:54:24.442Z,22.37
2023-01-20T19:59:27.289Z,16.73
2023-01-20T20:04:30.158Z,21.33
2023-01-20T20:09:35.201Z,13.67
2023-01-20T20:14:38.199Z,15.80
2023-01-20T20:19:41.278Z,18.73
2023-01-20T20:24:46.878Z,16.80
2023-01-20T20:29:49.597Z,17.10
2023-01-20T20:34:52.322Z,16.17
2023-01-20T20:39:56.458Z,16.00
2023-01-20T20:44:59.288Z,18.40
2023-01-20T20:50:02.155Z,20.13
2023-01-20T20:55:07.394Z,17.37
2023-01-20T21:00:11.450Z,18.53
2023-01-20T21:05:14.508Z,21.80
2023-01-20T21:10:21.051Z,19.33
2023-01-20T21:15:23.977Z,17.77
2023-01-20T21:20:26.766Z,18.90
2023-01-20T21:25:32.801Z,19.63
2023-01-20T21:30:35.861Z,20.83
2023-01-20T21:35:39.186Z,19.70
2023-01-20T21:40:59.584Z,16.63
2023-01-20T21:46:02.388Z,15.43
2023-01-20T21:51:23.053Z,20.00
2023-01-20T21:56:27.241Z,18.83
2023-01-20T22:01:30.043Z,18.67
2023-01-20T22:06:32.777Z,18.63
2023-01-20T22:11:37.005Z,20.53
2023-01-20T22:16:39.825Z,24.23
2023-01-20T22:21:42.743Z,21.60
2023-01-20T22:26:48.554Z,21.20
2023-01-20T22:31:52.796Z,19.70
2023-01-20T22:36:56.584Z,20.77
2023-01-20T22:42:00.665Z,20.43
2023-01-20T22:47:05.739Z,19.20
2023-01-20T22:52:08.436Z,19.73
2023-01-20T22:57:13.126Z,20.93
2023-01-20T23:02:16.093Z,20.63
2023-01-20T23:07:18.973Z,21.60
2023-01-20T23:12:23.307Z,20.17
2023-01-20T23:17:26.481Z,19.00
2023-01-20T23:22:29.934Z,23.13
2023-01-20T23:27:34.015Z,24.57
2023-01-20T23:32:36.818Z,18.90
2023-01-20T23:37:39.507Z,18.87
2023-01-20T23:42:43.829Z,21.43
2023-01-20T23:47:46.596Z,19.87
2023-01-20T23:52:49.349Z,24.10
2023-01-20T23:57:53.767Z,18.07
